createdAt,value
2022-11-27T00:04:39.491Z,1008
2022-11-27T00:14:39.620Z,1008
2022-11-27T00:24:39.743Z,1008
2022-11-27T00:34:39.924Z,1008
2022-11-27T00:44:39.822Z,1008
2022-11-27T00:54:39.861Z,1009
2022-11-27T01:04:39.749Z,1009
2022-11-27T01:14:39.809Z,1009
2022-11-27T01:24:39.944Z,1009
2022-11-27T01:34:39.892Z,1009
2022-11-27T01:44:40.013Z,1009
2022-11-27T01:54:39.827Z,1009
2022-11-27T02:04:39.870Z,1009
2022-11-27T02:14:44.576Z,1009
2022-11-27T02:24:39.952Z,1009
2022-11-27T02:34:39.772Z,1009
2022-11-27T02:44:40.007Z,1009
2022-11-27T02:54:40.001Z,1010
2022-11-27T03:04:40.093Z,1009
2022-11-27T03:14:39.900Z,1009
2022-11-27T03:24:40.007Z,1009
2022-11-27T03:34:40.081Z,1009
2022-11-27T03:44:39.961Z,1009
2022-11-27T03:54:40.013Z,1010
2022-11-27T04:04:40.010Z,1010
2022-11-27T04:14:39.985Z,1010
2022-11-27T04:24:40.262Z,1010
2022-11-27T04:34:39.972Z,1010
2022-11-27T04:44:40.119Z,1010
2022-11-27T04:54:39.916Z,1010
2022-11-27T05:04:40.170Z,1010
2022-11-27T05:14:39.956Z,1010
2022-11-27T05:24:40.235Z,1010
2022-11-27T05:34:40.056Z,1010
2022-11-27T05:44:40.179Z,1010
2022-11-27T05:54:40.177Z,1010
2022-11-27T06:04:40.161Z,1010
2022-11-27T06:14:40.153Z,1010
2022-11-27T06:24:40.145Z,1010
2022-11-27T06:34:40.090Z,1010
2022-11-27T06:44:40.098Z,1010
2022-11-27T06:54:40.126Z,1010
2022-11-27T07:04:40.226Z,1010
2022-11-27T07:14:40.250Z,1010
2022-11-27T07:24:40.314Z,1010
2022-11-27T07:34:40.129Z,1010
2022-11-27T07:44:40.320Z,1010
2022-11-27T07:54:40.177Z,1010
2022-11-27T08:04:40.488Z,1010
2022-11-27T08:14:40.102Z,1010
2022-11-27T08:24:40.458Z,1010
2022-11-27T08:34:40.127Z,1010
2022-11-27T08:44:40.367Z,1010
2022-11-27T08:54:40.213Z,1010
2022-11-27T09:04:40.404Z,1010
2022-11-27T09:14:40.328Z,1010
2022-11-27T09:24:40.424Z,1010
2022-11-27T09:34:40.457Z,1010
2022-11-27T09:44:40.417Z,1010
2022-11-27T09:54:40.337Z,1010
2022-11-27T10:04:58.303Z,1010
2022-11-27T10:14:40.291Z,1010
2022-11-27T10:24:40.470Z,1010
2022-11-27T10:34:40.356Z,1010
2022-11-27T10:44:40.640Z,1010
2022-11-27T10:54:40.601Z,1010
2022-11-27T11:04:40.475Z,1010
2022-11-27T11:14:40.445Z,1010
2022-11-27T11:24:40.692Z,1010
2022-11-27T11:34:40.645Z,1010
2022-11-27T11:44:40.759Z,1010
2022-11-27T11:54:40.509Z,1010
2022-11-27T12:04:40.648Z,1010
2022-11-27T12:34:46.123Z,1010
2022-11-27T12:44:40.691Z,1010
2022-11-27T12:54:40.513Z,1010
2022-11-27T13:04:40.574Z,1010
2022-11-27T13:14:40.582Z,1009
2022-11-27T13:24:40.802Z,1010
2022-11-27T13:34:40.629Z,1010
2022-11-27T13:44:40.641Z,1010
2022-11-27T13:54:40.260Z,1009
2022-11-27T14:04:40.886Z,1009
2022-11-27T14:14:40.551Z,1009
2022-11-27T14:24:40.820Z,1009
2022-11-27T14:34:40.865Z,1009
2022-11-27T14:44:40.522Z,1008
2022-11-27T14:54:40.299Z,1008
2022-11-27T15:04:40.523Z,1008
2022-11-27T15:14:40.494Z,1008
2022-11-27T15:24:40.510Z,1008
2022-11-27T15:34:40.701Z,1008
2022-11-27T15:44:40.822Z,1008
2022-11-27T15:54:40.685Z,1007
2022-11-27T16:04:40.748Z,1007
2022-11-27T16:14:40.746Z,1007
2022-11-27T16:24:40.685Z,1007
2022-11-27T16:34:40.649Z,1007
2022-11-27T16:44:40.946Z,1007
2022-11-27T16:54:40.823Z,1007
2022-11-27T17:04:41.043Z,1007
2022-11-27T17:14:40.696Z,1006
2022-11-27T17:24:40.547Z,1006
2022-11-27T17:34:40.531Z,1006
2022-11-27T17:44:40.745Z,1006
2022-11-27T17:54:40.579Z,1006
2022-11-27T18:04:40.729Z,1006
2022-11-27T18:14:40.504Z,1006
2022-11-27T18:24:40.725Z,1005
2022-11-27T18:34:40.502Z,1005
2022-11-27T18:44:44.617Z,1006
2022-11-27T18:54:40.707Z,1005
2022-11-27T19:04:40.969Z,1005
2022-11-27T19:14:40.890Z,1005
2022-11-27T19:24:40.715Z,1005
2022-11-27T19:34:40.952Z,1005
2022-11-27T19:44:46.583Z,1005
2022-11-27T19:54:41.021Z,1005
2022-11-27T20:04:40.837Z,1005
2022-11-27T20:14:41.055Z,1005
2022-11-27T20:24:52.955Z,1005
2022-11-27T20:34:40.898Z,1005
2022-11-27T20:44:40.676Z,1005
2022-11-27T20:54:40.892Z,1005
2022-11-27T21:04:40.654Z,1005
2022-11-27T21:14:40.886Z,1005
2022-11-27T21:24:40.870Z,1005
2022-11-27T21:34:41.182Z,1005
2022-11-27T21:44:41.163Z,1005
2022-11-27T21:54:41.026Z,1004
2022-11-27T22:04:41.102Z,1004
2022-11-27T22:14:41.172Z,1004
2022-11-27T22:24:41.130Z,1004
2022-11-27T22:34:41.163Z,1004
2022-11-27T22:44:41.037Z,1004
2022-11-27T22:54:41.019Z,1003
2022-11-27T23:04:41.164Z,1003
2022-11-27T23:14:41.306Z,1003
2022-11-27T23:24:41.082Z,1003
2022-11-27T23:34:46.883Z,1003
2022-11-27T23:44:41.207Z,1003
2022-11-27T23:54:41.086Z,1003
